Time;durP1;ratioP1;P1;durP2;ratioP2;P2;SDS_P1;SDS_P2;PMS_P1;PMS_P2;Temp;Humidity;BMP_temperature;BMP_pressure;BME280_temperature;BME280_humidity;BME280_pressure;Samples;Min_cycle;Max_cycle;Signal;HPM_P1;HPM_P2
2022/11/20 00:01:55;;;;;;;14.65;11.73;;;17.30;99.90;;;;;;4245205;28;20205;-76
2022/11/20 00:03:58;;;;;;;17.52;13.35;;;17.30;99.90;;;;;;4237073;28;20205;-76
2022/11/20 00:06:01;;;;;;;14.95;12.65;;;17.30;99.90;;;;;;4228440;28;20234;-76
2022/11/20 00:08:04;;;;;;;14.52;11.82;;;17.30;99.90;;;;;;4231034;28;20284;-77
2022/11/20 00:10:07;;;;;;;14.45;12.85;;;17.40;99.90;;;;;;4241171;27;20261;-76
2022/11/20 00:12:09;;;;;;;14.75;12.43;;;17.30;99.90;;;;;;4238694;27;20221;-76
2022/11/20 00:14:12;;;;;;;14.70;12.77;;;17.30;99.90;;;;;;4241661;27;20617;-76
2022/11/20 00:16:18;;;;;;;14.88;12.65;;;17.30;99.90;;;;;;4237862;27;20255;-76
2022/11/20 00:18:20;;;;;;;14.70;12.02;;;17.30;99.90;;;;;;4233364;27;20255;-76
2022/11/20 00:20:22;;;;;;;15.40;11.75;;;17.30;99.90;;;;;;4252171;27;20274;-76
2022/11/20 00:22:25;;;;;;;14.05;11.32;;;17.30;99.90;;;;;;4236240;27;20209;-76
2022/11/20 00:24:27;;;;;;;15.55;12.10;;;17.30;99.90;;;;;;4243885;27;20353;-76
2022/11/20 00:26:30;;;;;;;12.90;11.35;;;17.30;99.90;;;;;;4236065;27;20283;-76
2022/11/20 00:28:32;;;;;;;12.65;11.35;;;17.30;99.90;;;;;;4247880;27;20217;-76
2022/11/20 00:30:34;;;;;;;15.10;12.00;;;17.30;99.90;;;;;;4247865;27;20208;-76
2022/11/20 00:32:38;;;;;;;12.80;11.43;;;17.30;99.90;;;;;;4248010;27;20209;-76
2022/11/20 00:34:40;;;;;;;14.40;11.73;;;17.30;99.90;;;;;;4247881;27;20693;-76
2022/11/20 00:36:43;;;;;;;14.15;11.88;;;17.30;99.90;;;;;;4248409;27;20217;-76
2022/11/20 00:38:46;;;;;;;12.40;11.00;;;17.30;99.90;;;;;;4247715;27;20252;-76
2022/11/20 00:40:56;;;;;;;14.25;11.85;;;17.30;99.90;;;;;;4248136;27;20213;-77
2022/11/20 00:42:59;;;;;;;13.88;11.13;;;17.30;99.90;;;;;;4238608;27;20205;-77
2022/11/20 00:45:01;;;;;;;15.00;11.93;;;17.30;99.90;;;;;;4231013;27;20626;-77
2022/11/20 00:47:03;;;;;;;14.10;10.73;;;17.30;99.90;;;;;;4247332;27;20229;-77
2022/11/20 00:49:07;;;;;;;13.05;11.25;;;17.30;99.90;;;;;;4231772;27;20218;-77
2022/11/20 00:51:11;;;;;;;13.85;10.98;;;17.30;99.90;;;;;;4246782;27;20209;-77
2022/11/20 00:53:15;;;;;;;13.35;11.07;;;17.20;99.90;;;;;;4233214;27;20283;-77
2022/11/20 00:55:17;;;;;;;14.00;11.20;;;17.30;99.90;;;;;;4247552;27;20277;-77
2022/11/20 00:57:19;;;;;;;13.88;11.63;;;17.20;99.90;;;;;;4244875;27;20665;-77
2022/11/20 00:59:21;;;;;;;13.63;10.70;;;17.20;99.90;;;;;;4233945;27;20205;-77
2022/11/20 01:01:26;;;;;;;13.48;11.30;;;17.20;99.90;;;;;;4247761;27;20205;-77
2022/11/20 01:03:28;;;;;;;12.90;10.90;;;17.30;99.90;;;;;;4243639;27;20206;-76
2022/11/20 01:05:35;;;;;;;15.25;11.52;;;17.20;99.90;;;;;;4230522;28;20218;-76
2022/11/20 01:07:37;;;;;;;13.93;11.98;;;17.20;99.90;;;;;;4230557;28;20615;-76
2022/11/20 01:09:40;;;;;;;12.10;10.57;;;17.20;99.90;;;;;;4230989;28;20206;-76
2022/11/20 01:11:44;;;;;;;13.35;10.98;;;17.20;99.90;;;;;;4230563;28;20247;-76
2022/11/20 01:13:48;;;;;;;12.90;10.90;;;17.30;99.90;;;;;;4230380;28;20720;-76
2022/11/20 01:15:50;;;;;;;13.27;10.70;;;17.20;99.90;;;;;;4230955;28;20619;-76
2022/11/20 01:17:53;;;;;;;13.60;10.85;;;17.20;99.90;;;;;;4230066;28;20252;-77
2022/11/20 01:19:55;;;;;;;14.20;11.20;;;17.20;99.90;;;;;;4223504;27;20284;-76
2022/11/20 01:21:59;;;;;;;12.68;10.57;;;17.20;99.90;;;;;;4221899;28;20259;-77
2022/11/20 01:24:01;;;;;;;12.60;10.75;;;17.20;99.90;;;;;;4221684;28;20776;-77
2022/11/20 01:26:05;;;;;;;13.68;10.73;;;17.30;99.90;;;;;;4222344;28;20229;-77
2022/11/20 01:28:07;;;;;;;14.10;11.20;;;17.20;99.90;;;;;;4220812;28;20374;-77
2022/11/20 01:30:11;;;;;;;12.82;10.82;;;17.20;99.90;;;;;;4223022;28;20213;-77
2022/11/20 01:32:13;;;;;;;12.77;10.57;;;17.20;99.90;;;;;;4219618;28;20222;-77
2022/11/20 01:34:18;;;;;;;12.27;10.32;;;17.20;99.90;;;;;;4223832;28;20206;-77
2022/11/20 01:36:22;;;;;;;11.98;10.65;;;17.20;99.90;;;;;;4218879;28;20308;-77
2022/11/20 01:38:26;;;;;;;12.57;10.52;;;17.20;99.90;;;;;;4225363;28;20575;-77
2022/11/20 01:40:28;;;;;;;12.85;10.02;;;17.20;99.90;;;;;;4218167;28;20215;-76
2022/11/20 01:44:54;;;;;;;13.35;9.98;;;17.20;99.90;;;;;;4228930;28;20190;-76
2022/11/20 01:47:00;;;;;;;12.45;10.15;;;17.20;99.90;;;;;;4213426;28;20230;-76
2022/11/20 01:49:05;;;;;;;12.00;10.80;;;17.20;99.90;;;;;;4213290;28;20252;-76
2022/11/20 01:51:14;;;;;;;12.07;10.18;;;17.20;99.90;;;;;;4228810;28;20282;-76
2022/11/20 01:53:19;;;;;;;11.98;10.48;;;17.20;99.90;;;;;;4215101;28;20218;-76
2022/11/20 01:55:26;;;;;;;11.95;10.45;;;17.10;99.90;;;;;;4219573;28;20255;-76
2022/11/20 01:57:32;;;;;;;12.70;10.20;;;17.10;99.90;;;;;;4225755;28;20228;-77
2022/11/20 01:59:35;;;;;;;13.68;10.73;;;17.10;99.90;;;;;;4217622;28;20206;-76
2022/11/20 02:01:38;;;;;;;13.05;11.13;;;17.10;99.90;;;;;;4218667;28;20214;-76
2022/11/20 02:03:41;;;;;;;13.27;10.98;;;17.10;99.90;;;;;;4223796;28;20233;-76
2022/11/20 02:05:50;;;;;;;13.40;10.75;;;17.10;99.90;;;;;;4218774;28;20717;-76
2022/11/20 02:07:55;;;;;;;14.00;11.05;;;17.10;99.90;;;;;;4222072;28;20271;-76
2022/11/20 02:09:57;;;;;;;11.98;10.20;;;17.20;99.90;;;;;;4220740;28;20209;-76
2022/11/20 02:12:02;;;;;;;14.05;10.45;;;17.10;99.90;;;;;;4221464;28;20299;-76
2022/11/20 02:14:03;;;;;;;12.27;10.70;;;17.10;99.90;;;;;;4221916;28;20214;-76
2022/11/20 02:16:12;;;;;;;12.10;10.23;;;17.10;99.90;;;;;;4219605;28;20260;-76
2022/11/20 02:18:16;;;;;;;11.50;10.02;;;17.10;99.90;;;;;;4214723;28;20650;-76
2022/11/20 02:20:18;;;;;;;12.60;10.23;;;17.10;99.90;;;;;;4227797;28;20294;-76
2022/11/20 02:22:25;;;;;;;13.70;10.63;;;17.10;99.90;;;;;;4217717;28;20215;-76
2022/11/20 02:24:29;;;;;;;11.75;10.52;;;17.10;99.90;;;;;;4224579;28;20290;-77
2022/11/20 02:26:35;;;;;;;12.55;10.95;;;17.10;99.90;;;;;;4216472;28;20226;-76
2022/11/20 02:28:38;;;;;;;11.63;9.85;;;17.10;99.90;;;;;;4226102;28;20210;-76
2022/11/20 02:30:40;;;;;;;11.35;10.13;;;17.10;99.90;;;;;;4214606;28;20210;-76
2022/11/20 02:32:43;;;;;;;12.45;10.63;;;17.10;99.90;;;;;;4226597;28;20294;-76
2022/11/20 02:34:45;;;;;;;11.90;10.27;;;17.10;99.90;;;;;;4214221;28;20214;-76
2022/11/20 02:36:49;;;;;;;11.48;10.27;;;17.10;99.90;;;;;;4227658;28;20744;-76
2022/11/20 02:38:51;;;;;;;12.25;10.40;;;17.10;99.90;;;;;;4213720;28;20223;-76
2022/11/20 02:40:55;;;;;;;14.13;10.40;;;17.10;99.90;;;;;;4227973;28;20243;-76
2022/11/20 02:42:58;;;;;;;11.40;10.18;;;17.10;99.90;;;;;;4221369;28;20275;-76
2022/11/20 02:45:00;;;;;;;10.85;9.75;;;17.10;99.90;;;;;;4228404;28;20206;-76
2022/11/20 02:47:03;;;;;;;12.05;9.98;;;17.10;99.90;;;;;;4228525;28;20291;-76
2022/11/20 02:49:06;;;;;;;11.57;10.23;;;17.10;99.90;;;;;;4228998;28;20286;-76
2022/11/20 02:51:08;;;;;;;12.95;10.18;;;17.10;99.90;;;;;;4227866;28;20217;-76
2022/11/20 02:53:10;;;;;;;12.38;9.85;;;17.10;99.90;;;;;;4214074;28;20272;-76
2022/11/20 02:55:13;;;;;;;11.40;10.20;;;17.10;99.90;;;;;;4228484;28;20255;-76
2022/11/20 02:57:17;;;;;;;12.55;10.45;;;17.10;99.90;;;;;;4226736;28;20210;-76
2022/11/20 02:59:19;;;;;;;11.95;10.23;;;17.00;99.90;;;;;;4215112;28;20222;-76
2022/11/20 03:01:22;;;;;;;11.63;10.15;;;17.10;99.90;;;;;;4217508;28;20210;-77
2022/11/20 03:03:24;;;;;;;11.38;10.18;;;17.10;99.90;;;;;;4228903;28;20209;-76
2022/11/20 03:05:26;;;;;;;11.73;9.88;;;17.10;99.90;;;;;;4229007;28;20263;-76
2022/11/20 03:07:29;;;;;;;12.07;9.90;;;17.00;99.90;;;;;;4228810;28;20754;-76
2022/11/20 03:09:31;;;;;;;14.35;10.48;;;17.10;99.90;;;;;;4228593;28;20255;-76
2022/11/20 03:11:33;;;;;;;12.15;10.82;;;17.10;99.90;;;;;;4228544;28;20627;-76
2022/11/20 03:13:37;;;;;;;13.18;10.40;;;17.10;99.90;;;;;;4228929;28;20210;-76
2022/11/20 03:15:39;;;;;;;12.05;9.98;;;17.10;99.90;;;;;;4228356;28;20722;-77
2022/11/20 03:17:42;;;;;;;12.63;10.50;;;17.10;99.90;;;;;;4228565;28;20210;-76
2022/11/20 03:19:44;;;;;;;11.15;9.65;;;17.10;99.90;;;;;;4242798;27;20224;-76
2022/11/20 03:21:47;;;;;;;10.70;9.27;;;17.00;99.90;;;;;;4245674;28;20201;-76
2022/11/20 03:23:49;;;;;;;11.98;10.00;;;17.00;99.90;;;;;;4245301;28;20221;-76
2022/11/20 03:25:51;;;;;;;12.02;10.10;;;17.00;99.90;;;;;;4245642;28;20310;-76
2022/11/20 03:27:55;;;;;;;11.80;10.48;;;17.10;99.90;;;;;;4245638;28;20682;-76
2022/11/20 03:29:58;;;;;;;10.68;9.55;;;17.00;99.90;;;;;;4245799;28;20213;-77
2022/11/20 03:32:01;;;;;;;11.10;9.95;;;17.00;99.90;;;;;;4245181;28;20673;-76
2022/11/20 03:34:04;;;;;;;12.15;10.05;;;17.00;99.90;;;;;;4245538;28;20734;-76
2022/11/20 03:36:09;;;;;;;11.90;10.25;;;17.00;99.90;;;;;;4244900;28;20250;-76
2022/11/20 03:38:11;;;;;;;11.35;9.82;;;17.00;99.90;;;;;;4235243;28;20342;-76
2022/11/20 03:40:13;;;;;;;11.32;9.55;;;17.00;99.90;;;;;;4228403;28;20218;-76
2022/11/20 03:44:32;;;;;;;12.10;9.98;;;17.00;99.90;;;;;;4231007;28;20223;-76
2022/11/20 03:46:36;;;;;;;11.43;9.43;;;17.00;99.90;;;;;;4231633;28;20678;-76
2022/11/20 03:48:38;;;;;;;12.27;9.50;;;17.00;99.90;;;;;;4231701;28;20723;-76
2022/11/20 03:50:41;;;;;;;10.95;9.82;;;17.00;99.90;;;;;;4232267;28;20213;-76
2022/11/20 03:52:43;;;;;;;11.32;9.70;;;17.00;99.90;;;;;;4234603;27;20209;-76
2022/11/20 03:54:45;;;;;;;12.18;9.90;;;17.00;99.90;;;;;;4240230;27;20266;-77
2022/11/20 03:56:48;;;;;;;10.25;9.05;;;17.00;99.90;;;;;;4246846;27;20209;-77
2022/11/20 03:58:50;;;;;;;12.38;9.90;;;17.00;99.90;;;;;;4232655;27;20206;-77
2022/11/20 04:00:53;;;;;;;11.45;10.10;;;17.00;99.90;;;;;;4247337;27;20204;-77
2022/11/20 04:02:59;;;;;;;13.25;10.13;;;17.00;99.90;;;;;;4249059;27;20217;-76
2022/11/20 04:05:01;;;;;;;11.95;9.82;;;17.00;99.90;;;;;;4232304;27;20630;-76
2022/11/20 04:07:04;;;;;;;11.15;9.63;;;17.00;99.90;;;;;;4248167;27;20217;-77
2022/11/20 04:09:07;;;;;;;10.80;9.68;;;16.90;99.90;;;;;;4231539;28;20235;-77
2022/11/20 04:11:11;;;;;;;10.25;9.07;;;17.00;99.90;;;;;;4231459;28;20243;-76
2022/11/20 04:13:14;;;;;;;11.55;9.40;;;17.00;99.90;;;;;;4231557;28;20210;-77
2022/11/20 04:15:16;;;;;;;11.27;9.73;;;17.00;99.90;;;;;;4231669;28;20306;-77
2022/11/20 04:17:18;;;;;;;11.15;9.52;;;16.90;99.90;;;;;;4231597;28;20271;-77
2022/11/20 04:19:22;;;;;;;10.32;9.20;;;16.90;99.90;;;;;;4244118;27;20737;-77
2022/11/20 04:21:25;;;;;;;11.63;9.50;;;17.00;99.90;;;;;;4245256;27;20198;-77
2022/11/20 04:23:28;;;;;;;10.73;8.80;;;17.00;99.90;;;;;;4235273;27;20262;-77
2022/11/20 04:25:30;;;;;;;12.85;9.95;;;17.00;99.90;;;;;;4244170;27;20267;-77
2022/11/20 04:27:33;;;;;;;11.38;9.48;;;17.00;99.90;;;;;;4235791;27;20237;-77
2022/11/20 04:29:35;;;;;;;10.25;9.25;;;17.00;99.90;;;;;;4243301;27;20205;-77
2022/11/20 04:31:37;;;;;;;10.95;9.05;;;17.00;99.90;;;;;;4231456;28;20214;-77
2022/11/20 04:33:40;;;;;;;10.88;9.20;;;17.00;99.90;;;;;;4231820;28;20255;-77
2022/11/20 04:35:47;;;;;;;9.98;8.73;;;17.00;99.90;;;;;;4237099;27;20605;-77
2022/11/20 04:37:52;;;;;;;11.90;9.43;;;17.00;99.90;;;;;;4241369;27;20642;-77
2022/11/20 04:39:55;;;;;;;10.98;9.88;;;17.00;99.90;;;;;;4239045;27;20205;-77
2022/11/20 04:44:13;;;;;;;10.52;9.25;;;17.00;99.90;;;;;;4236698;27;20205;-76
2022/11/20 04:46:16;;;;;;;10.48;9.38;;;17.00;99.90;;;;;;4242392;27;20604;-77
2022/11/20 04:48:18;;;;;;;12.75;10.30;;;17.00;99.90;;;;;;4237056;27;20647;-77
2022/11/20 04:50:21;;;;;;;11.43;9.95;;;16.90;99.90;;;;;;4242441;27;20205;-77
2022/11/20 04:52:24;;;;;;;13.18;9.48;;;16.90;99.90;;;;;;4235515;27;20263;-77
2022/11/20 04:54:27;;;;;;;10.60;9.48;;;16.90;99.90;;;;;;4243109;27;20261;-77
2022/11/20 04:56:29;;;;;;;10.98;9.70;;;16.90;99.90;;;;;;4244270;27;20687;-76
2022/11/20 04:58:32;;;;;;;11.77;9.85;;;16.90;99.90;;;;;;4248249;27;20262;-76
2022/11/20 05:00:34;;;;;;;11.55;9.45;;;16.90;99.90;;;;;;4248182;27;20213;-77
2022/11/20 05:02:37;;;;;;;12.32;9.95;;;16.90;99.90;;;;;;4234238;27;20263;-77
2022/11/20 05:04:39;;;;;;;12.25;10.40;;;16.90;99.90;;;;;;4244735;27;20214;-77
2022/11/20 05:06:41;;;;;;;11.35;10.07;;;16.90;99.90;;;;;;4232984;27;20218;-77
2022/11/20 05:08:45;;;;;;;11.52;9.40;;;16.90;99.90;;;;;;4245597;27;20289;-77
2022/11/20 05:10:47;;;;;;;11.40;9.65;;;16.90;99.90;;;;;;4233175;27;20279;-77
2022/11/20 05:12:50;;;;;;;12.13;10.05;;;16.90;99.90;;;;;;4246722;27;20273;-77
2022/11/20 05:14:52;;;;;;;13.10;9.75;;;16.90;99.90;;;;;;4231582;27;20278;-77
2022/11/20 05:16:54;;;;;;;11.02;9.90;;;16.90;99.90;;;;;;4245267;27;20274;-77
2022/11/20 05:18:57;;;;;;;12.40;10.23;;;16.90;99.90;;;;;;4236625;27;20209;-77
2022/11/20 05:21:00;;;;;;;12.52;10.48;;;16.90;99.90;;;;;;4214234;28;20219;-77
2022/11/20 05:23:02;;;;;;;12.68;10.20;;;16.90;99.90;;;;;;4214344;28;20682;-77
2022/11/20 05:25:07;;;;;;;11.25;10.05;;;16.90;99.90;;;;;;4230493;28;20213;-77
2022/11/20 05:27:09;;;;;;;12.80;10.05;;;16.90;99.90;;;;;;4230379;28;20213;-77
2022/11/20 05:29:12;;;;;;;12.50;10.60;;;16.90;99.90;;;;;;4230285;28;20233;-77
2022/11/20 05:31:17;;;;;;;10.63;9.25;;;16.90;99.90;;;;;;4230505;28;20225;-77
2022/11/20 05:33:20;;;;;;;12.25;10.40;;;16.90;99.90;;;;;;4230464;28;20662;-77
2022/11/20 05:35:22;;;;;;;12.77;10.07;;;16.90;99.90;;;;;;4230607;28;20628;-77
2022/11/20 05:37:24;;;;;;;11.13;9.93;;;16.90;99.90;;;;;;4230444;28;20214;-77
2022/11/20 05:39:27;;;;;;;12.43;10.45;;;16.90;99.90;;;;;;4230346;28;20206;-76
2022/11/20 05:41:30;;;;;;;11.65;10.38;;;16.90;99.90;;;;;;4229782;28;20202;-76
2022/11/20 05:43:34;;;;;;;12.77;10.13;;;16.90;99.90;;;;;;4230066;28;20210;-76
2022/11/20 05:45:37;;;;;;;12.80;10.85;;;16.90;99.90;;;;;;4230135;28;20267;-76
2022/11/20 05:47:39;;;;;;;12.05;9.85;;;16.90;99.90;;;;;;4229718;28;20549;-76
2022/11/20 05:49:41;;;;;;;12.23;10.45;;;16.90;99.90;;;;;;4230610;28;20765;-76
2022/11/20 05:51:44;;;;;;;12.77;10.57;;;16.90;99.90;;;;;;4230269;28;20210;-76
2022/11/20 05:53:46;;;;;;;12.57;10.73;;;16.90;99.90;;;;;;4224572;28;20651;-76
2022/11/20 05:55:58;;;;;;;11.90;10.15;;;16.90;99.90;;;;;;4224344;28;20247;-76
2022/11/20 05:58:02;;;;;;;13.23;10.40;;;16.90;99.90;;;;;;4229779;28;20711;-76
2022/11/20 06:00:05;;;;;;;11.88;10.10;;;16.90;99.90;;;;;;4229968;28;20198;-76
2022/11/20 06:02:07;;;;;;;11.63;10.20;;;16.90;99.90;;;;;;4229963;28;20652;-76
2022/11/20 06:04:10;;;;;;;11.00;9.88;;;16.90;99.90;;;;;;4229892;28;20205;-76
2022/11/20 06:06:13;;;;;;;13.82;10.93;;;16.90;99.90;;;;;;4229715;28;20268;-76
2022/11/20 06:08:15;;;;;;;12.50;10.38;;;16.90;99.90;;;;;;4229567;28;20264;-76
2022/11/20 06:10:18;;;;;;;11.40;10.20;;;16.90;99.90;;;;;;4229579;28;20271;-76
2022/11/20 06:12:20;;;;;;;12.13;10.68;;;16.80;99.90;;;;;;4229688;28;20214;-76
2022/11/20 06:14:24;;;;;;;11.95;10.65;;;16.90;99.90;;;;;;4229625;28;20209;-76
2022/11/20 06:16:26;;;;;;;12.98;10.45;;;16.80;99.90;;;;;;4229663;28;20354;-76
2022/11/20 06:18:29;;;;;;;12.98;10.65;;;16.80;99.90;;;;;;4229509;28;20214;-76
2022/11/20 06:20:31;;;;;;;14.57;11.38;;;16.80;99.90;;;;;;4249626;27;20229;-76
2022/11/20 06:22:34;;;;;;;12.20;10.70;;;16.80;99.90;;;;;;4246792;27;20217;-76
2022/11/20 06:24:36;;;;;;;13.18;10.38;;;16.80;99.90;;;;;;4246660;27;20217;-76
2022/11/20 06:26:38;;;;;;;13.35;11.13;;;16.80;99.90;;;;;;4232526;27;20209;-76
2022/11/20 06:28:41;;;;;;;11.60;10.23;;;16.80;99.90;;;;;;4243322;27;20229;-76
2022/11/20 06:30:47;;;;;;;13.77;10.30;;;16.80;99.90;;;;;;4231769;27;20274;-76
2022/11/20 06:32:49;;;;;;;12.77;11.02;;;16.80;99.90;;;;;;4244826;27;20220;-76
2022/11/20 06:34:52;;;;;;;13.15;11.48;;;16.80;99.90;;;;;;4230728;27;20661;-76
2022/11/20 06:36:54;;;;;;;12.43;10.38;;;16.80;99.90;;;;;;4245629;27;20213;-76
2022/11/20 06:38:56;;;;;;;12.20;10.70;;;16.80;99.90;;;;;;4230064;27;20213;-76
2022/11/20 06:40:59;;;;;;;15.60;11.98;;;16.80;99.90;;;;;;4246011;27;20217;-77
2022/11/20 06:43:01;;;;;;;13.52;11.30;;;16.80;99.90;;;;;;4245526;27;20657;-77
2022/11/20 06:45:04;;;;;;;13.90;10.90;;;16.80;99.90;;;;;;4229811;28;20213;-77
2022/11/20 06:47:07;;;;;;;14.80;12.05;;;16.80;99.90;;;;;;4245566;27;20673;-77
2022/11/20 06:49:10;;;;;;;13.88;11.07;;;16.80;99.90;;;;;;4230449;27;20327;-76
2022/11/20 06:51:12;;;;;;;13.98;11.05;;;16.80;99.90;;;;;;4244478;27;20213;-76
2022/11/20 06:53:14;;;;;;;15.18;11.90;;;16.80;99.90;;;;;;4230694;27;20214;-76
2022/11/20 06:55:17;;;;;;;14.13;11.35;;;16.80;99.90;;;;;;4243710;27;20209;-76
2022/11/20 06:57:19;;;;;;;13.57;11.35;;;16.90;99.90;;;;;;4231709;28;20221;-76
2022/11/20 06:59:22;;;;;;;13.68;11.13;;;16.80;99.90;;;;;;4242854;27;20613;-76
2022/11/20 07:01:24;;;;;;;15.07;11.43;;;16.80;99.90;;;;;;4229426;28;20231;-76
2022/11/20 07:03:28;;;;;;;14.15;11.93;;;16.80;99.90;;;;;;4232409;27;20565;-76
2022/11/20 07:05:30;;;;;;;15.32;11.50;;;16.80;99.90;;;;;;4245792;27;20603;-76
2022/11/20 07:07:32;;;;;;;15.43;12.05;;;16.80;99.90;;;;;;4241424;27;20266;-76
2022/11/20 07:09:35;;;;;;;13.73;11.45;;;16.80;99.90;;;;;;4233364;27;20282;-76
2022/11/20 07:11:37;;;;;;;14.32;11.45;;;16.80;99.90;;;;;;4240394;27;20209;-76
2022/11/20 07:13:39;;;;;;;13.60;11.35;;;16.80;99.90;;;;;;4234520;27;20657;-76
2022/11/20 07:15:42;;;;;;;14.40;11.43;;;16.80;99.90;;;;;;4239482;27;20281;-76
2022/11/20 07:17:44;;;;;;;15.35;12.27;;;16.80;99.90;;;;;;4230417;27;20205;-76
2022/11/20 07:19:48;;;;;;;12.93;11.55;;;16.80;99.90;;;;;;4244474;27;20220;-79
2022/11/20 07:21:50;;;;;;;14.27;11.70;;;16.80;99.90;;;;;;4239031;28;20202;-79
2022/11/20 07:23:53;;;;;;;15.27;11.52;;;16.80;99.90;;;;;;4236354;27;20210;-79
2022/11/20 07:25:55;;;;;;;13.82;10.85;;;16.80;99.90;;;;;;4238197;28;20205;-79
2022/11/20 07:27:58;;;;;;;13.00;11.27;;;16.80;99.90;;;;;;4237168;28;20549;-79
2022/11/20 07:30:00;;;;;;;12.55;11.25;;;16.80;99.90;;;;;;4237069;28;20242;-79
2022/11/20 07:32:03;;;;;;;12.38;11.05;;;16.80;99.90;;;;;;4237950;28;20213;-80
2022/11/20 07:34:05;;;;;;;14.50;11.60;;;16.80;99.90;;;;;;4236660;28;20222;-79
2022/11/20 07:36:09;;;;;;;13.35;10.80;;;16.80;99.90;;;;;;4238105;28;20205;-79
2022/11/20 07:38:12;;;;;;;13.55;10.85;;;16.80;99.90;;;;;;4236248;28;20683;-79
2022/11/20 07:40:14;;;;;;;13.93;11.07;;;16.80;99.90;;;;;;4239442;28;20246;-79
2022/11/20 07:42:16;;;;;;;13.02;11.25;;;16.80;99.90;;;;;;4238166;28;20209;-80
2022/11/20 07:44:19;;;;;;;15.15;11.88;;;16.80;99.90;;;;;;4240898;28;20213;-80
2022/11/20 07:46:21;;;;;;;14.63;11.60;;;16.80;99.90;;;;;;4246042;28;20209;-79
2022/11/20 07:48:23;;;;;;;12.63;10.82;;;16.80;99.90;;;;;;4234336;28;20263;-79
2022/11/20 07:50:25;;;;;;;14.52;12.02;;;16.80;99.90;;;;;;4241188;28;20671;-79
2022/11/20 07:52:31;;;;;;;14.15;12.02;;;16.80;99.90;;;;;;4233755;28;20675;-79
2022/11/20 07:54:34;;;;;;;16.02;11.95;;;16.80;99.90;;;;;;4245796;28;20262;-80
2022/11/20 07:56:36;;;;;;;12.82;10.80;;;16.80;99.90;;;;;;4232052;28;20210;-79
2022/11/20 07:58:38;;;;;;;12.68;10.77;;;16.80;99.90;;;;;;4242487;28;20629;-79
2022/11/20 08:00:41;;;;;;;14.57;12.10;;;16.80;99.90;;;;;;4235313;28;20244;-79
2022/11/20 08:02:43;;;;;;;13.60;11.45;;;16.80;99.90;;;;;;4245655;28;20244;-80
2022/11/20 08:04:45;;;;;;;14.00;11.93;;;16.80;99.90;;;;;;4246048;28;20266;-80
2022/11/20 08:06:48;;;;;;;13.90;11.25;;;16.80;99.90;;;;;;4246103;28;20209;-79
2022/11/20 08:08:51;;;;;;;13.30;10.98;;;16.80;99.90;;;;;;4245496;28;20337;-79
2022/11/20 08:14:11;;;;;;;12.43;10.68;;;16.80;99.90;;;;;;4245521;28;20229;-80
2022/11/20 08:15:37;;;;;;;13.90;11.60;;;16.80;99.90;;;;;;4241027;28;20198;-79
2022/11/20 08:17:39;;;;;;;13.07;11.25;;;16.80;99.90;;;;;;4230597;28;20210;-79
2022/11/20 08:19:42;;;;;;;13.52;11.30;;;16.80;99.90;;;;;;4233696;28;20270;-79
2022/11/20 08:21:44;;;;;;;15.50;11.35;;;16.80;99.90;;;;;;4239475;28;20255;-79
2022/11/20 08:23:47;;;;;;;16.13;12.07;;;16.80;99.90;;;;;;4235209;28;20250;-79
2022/11/20 08:25:51;;;;;;;12.60;10.52;;;16.80;99.90;;;;;;4238730;28;20251;-79
2022/11/20 08:27:54;;;;;;;14.90;11.40;;;16.80;99.90;;;;;;4236581;27;20205;-79
2022/11/20 08:29:56;;;;;;;14.77;11.57;;;16.80;99.90;;;;;;4241027;27;20259;-79
2022/11/20 08:31:58;;;;;;;13.65;11.40;;;16.80;99.90;;;;;;4239881;27;20276;-80
2022/11/20 08:34:00;;;;;;;13.60;10.57;;;16.80;99.90;;;;;;4239762;27;20206;-76
2022/11/20 08:36:04;;;;;;;12.48;11.00;;;16.80;99.90;;;;;;4240272;27;20239;-76
2022/11/20 08:38:07;;;;;;;13.95;10.60;;;16.80;99.90;;;;;;4238544;27;20213;-76
2022/11/20 08:40:12;;;;;;;12.88;11.00;;;16.80;99.90;;;;;;4241099;27;20665;-76
2022/11/20 08:42:15;;;;;;;13.80;10.82;;;16.80;99.90;;;;;;4240551;27;20271;-76
2022/11/20 08:44:18;;;;;;;14.60;11.00;;;16.80;99.90;;;;;;4243053;27;20616;-77
2022/11/20 08:46:20;;;;;;;12.23;10.48;;;16.80;99.90;;;;;;4236756;27;20221;-77
2022/11/20 08:48:22;;;;;;;15.05;10.90;;;16.80;99.90;;;;;;4242493;27;20209;-77
2022/11/20 08:50:25;;;;;;;13.07;10.63;;;16.80;99.90;;;;;;4235915;27;20229;-76
2022/11/20 08:52:27;;;;;;;12.45;10.50;;;16.80;99.90;;;;;;4242991;27;20216;-77
2022/11/20 08:54:30;;;;;;;12.57;10.57;;;16.80;99.90;;;;;;4237210;27;20303;-76
2022/11/20 08:56:32;;;;;;;13.52;10.77;;;16.80;99.90;;;;;;4246448;27;20622;-76
2022/11/20 08:58:36;;;;;;;14.30;10.68;;;16.80;99.90;;;;;;4235126;27;20214;-76
2022/11/20 09:00:39;;;;;;;13.68;10.82;;;16.80;99.90;;;;;;4240545;27;20259;-76
2022/11/20 09:02:41;;;;;;;13.18;10.68;;;16.80;99.90;;;;;;4245072;27;20258;-76
2022/11/20 09:04:43;;;;;;;13.55;11.55;;;16.80;99.90;;;;;;4247721;27;20201;-76
2022/11/20 09:06:46;;;;;;;14.43;11.60;;;16.80;99.90;;;;;;4247744;27;20213;-76
2022/11/20 09:08:52;;;;;;;14.15;11.15;;;16.80;99.90;;;;;;4248040;27;20262;-76
2022/11/20 09:10:54;;;;;;;15.10;11.52;;;16.80;99.90;;;;;;4247885;27;20293;-76
2022/11/20 09:12:57;;;;;;;14.55;10.50;;;16.80;99.90;;;;;;4248023;27;20653;-76
2022/11/20 09:15:01;;;;;;;13.98;10.93;;;16.80;99.90;;;;;;4230610;28;20281;-76
2022/11/20 09:17:03;;;;;;;15.25;10.73;;;16.80;99.90;;;;;;4233694;27;20221;-76
2022/11/20 09:19:05;;;;;;;13.05;10.52;;;16.80;99.90;;;;;;4242107;27;20612;-76
2022/11/20 09:21:11;;;;;;;11.93;9.90;;;16.80;99.90;;;;;;4230724;28;20210;-76
2022/11/20 09:23:13;;;;;;;13.20;10.77;;;16.80;99.90;;;;;;4230528;28;20614;-79
2022/11/20 09:25:16;;;;;;;12.50;10.30;;;16.80;99.90;;;;;;4230791;28;20217;-79
2022/11/20 09:27:21;;;;;;;12.85;10.63;;;16.80;99.90;;;;;;4230877;28;20282;-79
2022/11/20 09:29:23;;;;;;;12.60;10.18;;;16.80;99.90;;;;;;4230777;28;20263;-79
2022/11/20 09:31:33;;;;;;;14.17;10.93;;;16.90;99.90;;;;;;4230354;28;20267;-79
2022/11/20 09:33:36;;;;;;;12.82;10.98;;;16.80;99.90;;;;;;4225352;28;20288;-79
2022/11/20 09:35:38;;;;;;;13.23;10.55;;;16.80;99.90;;;;;;4217052;28;20260;-79
2022/11/20 09:37:41;;;;;;;12.00;10.67;;;16.80;99.90;;;;;;4230826;28;20210;-79
2022/11/20 09:39:43;;;;;;;13.60;10.98;;;16.90;99.90;;;;;;4229860;28;20218;-80
2022/11/20 09:42:04;;;;;;;14.57;10.77;;;16.90;99.90;;;;;;4230360;28;20255;-79
2022/11/20 09:44:19;;;;;;;13.80;10.52;;;16.80;99.90;;;;;;4227580;28;20205;-79
2022/11/20 09:46:30;;;;;;;13.88;10.43;;;16.80;99.90;;;;;;4230499;28;20202;-80
2022/11/20 09:49:00;;;;;;;14.35;10.98;;;16.80;99.90;;;;;;4230322;28;20213;-79
2022/11/20 09:51:14;;;;;;;12.60;9.38;;;16.90;99.90;;;;;;4208745;28;20238;-79
2022/11/20 09:53:27;;;;;;;12.98;10.30;;;16.90;99.90;;;;;;4230953;28;20278;-79
2022/11/20 09:55:31;;;;;;;12.77;11.18;;;16.90;99.90;;;;;;4230256;28;20214;-76
2022/11/20 09:57:37;;;;;;;12.95;10.30;;;16.90;99.90;;;;;;4229851;28;20730;-76
2022/11/20 09:59:41;;;;;;;12.93;10.15;;;16.90;99.90;;;;;;4230080;28;20221;-76
2022/11/20 10:01:46;;;;;;;13.95;10.63;;;16.90;99.90;;;;;;4222825;28;20214;-76
2022/11/20 10:03:56;;;;;;;12.25;9.75;;;16.90;99.90;;;;;;4230258;28;20206;-76
2022/11/20 10:06:01;;;;;;;12.05;10.10;;;16.90;99.90;;;;;;4230153;28;20210;-76
2022/11/20 10:08:17;;;;;;;13.13;10.23;;;16.90;99.90;;;;;;4229702;28;20209;-76
2022/11/20 10:10:29;;;;;;;13.23;10.65;;;16.90;99.90;;;;;;4229684;28;20210;-76
2022/11/20 10:12:46;;;;;;;13.90;10.35;;;16.90;99.90;;;;;;4229832;28;20305;-76
2022/11/20 10:15:05;;;;;;;12.07;10.00;;;16.90;99.90;;;;;;4229361;28;20622;-76
2022/11/20 10:17:18;;;;;;;12.50;10.45;;;16.90;99.90;;;;;;4215902;28;20661;-76
2022/11/20 10:19:37;;;;;;;13.30;10.63;;;16.90;99.90;;;;;;4226585;28;20311;-76
2022/11/20 10:21:53;;;;;;;11.90;10.00;;;16.90;99.90;;;;;;4227068;27;20255;-76
2022/11/20 10:24:18;;;;;;;11.65;9.20;;;16.90;99.90;;;;;;4238286;27;20276;-76
2022/11/20 10:26:27;;;;;;;12.65;10.27;;;16.90;99.90;;;;;;4240828;27;20642;-76
2022/11/20 10:28:42;;;;;;;11.82;9.93;;;16.90;99.90;;;;;;4234096;27;20239;-76
2022/11/20 10:30:46;;;;;;;11.35;9.27;;;17.00;99.90;;;;;;4244645;27;20240;-76
2022/11/20 10:32:54;;;;;;;11.00;9.18;;;16.90;99.90;;;;;;4231486;27;20209;-76
2022/11/20 10:35:01;;;;;;;14.05;10.38;;;16.90;99.90;;;;;;4246279;27;20216;-76
2022/11/20 10:37:10;;;;;;;12.18;9.85;;;17.00;99.90;;;;;;4213060;28;20268;-76
2022/11/20 10:39:19;;;;;;;12.63;10.18;;;16.90;99.90;;;;;;4231361;27;20267;-76